Date,TemperatureHighF,TemperatureAvgF,TemperatureLowF,DewpointHighF,DewpointAvgF,DewpointLowF,HumidityHigh,HumidityAvg,HumidityLow,PressureMaxIn,PressureMinIn,WindSpeedMaxMPH,WindSpeedAvgMPH,GustSpeedMaxMPH,PrecipitationSumIn
2013-1-1,23.0,15.0,-1.0,1.0,-5.1,-7.0,78,41,29,0.00,40.00,13,8,28,0.00
2013-1-2,25.0,14.6,5.0,-3.0,-5.6,-10.0,52,40,27,0.00,40.00,11,6,22,0.00
2013-1-3,43.0,15.8,-1.0,-2.0,-9.2,-16.0,58,38,8,0.00,40.00,5,3,12,0.00
2013-1-4,48.0,22.3,10.0,11.0,3.8,-4.0,67,48,20,0.00,40.00,5,2,11,0.00
2013-1-5,41.0,22.3,4.0,9.0,-4.2,-10.0,60,34,16,0.00,40.00,11,4,23,0.00
2013-1-6,50.0,29.1,7.0,6.0,-6.7,-19.0,42,24,7,0.00,40.00,13,5,27,0.00
2013-1-7,47.0,37.4,30.0,3.0,-6.2,-11.0,30,16,8,0.00,40.00,12,7,28,0.00
2013-1-8,35.0,31.9,28.0,15.0,10.2,-9.0,49,41,15,0.00,40.00,16,11,38,0.00
2013-1-9,54.0,39.0,29.0,12.0,8.3,1.0,44,30,14,0.00,40.00,16,6,28,0.00
2013-1-10,49.0,33.9,21.0,10.0,3.1,-4.0,53,30,11,0.00,40.00,8,3,23,0.00
2013-1-11,30.0,19.0,8.0,20.0,3.0,-13.0,78,50,30,0.00,40.00,16,9,40,0.00
2013-1-12,16.0,7.2,-2.0,-3.0,-11.5,-16.0,78,45,25,0.00,40.00,10,6,20,0.00
2013-1-13,10.0,-1.6,-11.0,-4.0,-9.3,-17.0,76,69,51,0.00,40.00,8,3,13,0.00
2013-1-14,16.0,-0.4,-14.0,-4.0,-15.6,-21.0,73,51,27,0.00,40.00,12,4,23,0.00
2013-1-15,30.0,19.1,4.0,14.0,-1.9,-20.0,52,39,26,0.00,40.00,16,11,33,0.00
2013-1-16,47.0,31.3,17.0,16.0,12.6,7.0,72,47,29,0.00,40.00,14,8,31,0.00
2013-1-17,49.0,27.0,10.0,12.0,6.8,2.0,78,49,16,0.00,40.00,10,4,21,0.00
2013-1-18,44.0,35.8,32.0,6.0,2.1,0.0,27,24,20,0.00,40.00,16,12,35,0.00
2013-1-19,48.0,35.4,24.0,2.0,-0.9,-6.0,36,22,11,0.00,40.00,15,8,28,0.00
2013-1-20,43.0,34.0,21.0,7.0,-0.5,-6.0,53,24,15,0.00,40.00,11,6,34,0.00
2013-1-21,42.0,33.7,21.0,7.0,2.1,-5.0,43,26,17,0.00,40.00,15,9,32,0.00
2013-1-22,50.0,41.3,36.0,-5.0,-11.0,-20.0,17,11,6,0.00,40.00,16,11,34,0.00
2013-1-23,56.0,45.2,38.0,-2.0,-9.0,-21.0,13,10,6,0.00,40.00,12,8,26,0.00
2013-1-24,49.0,43.5,39.0,25.0,6.7,-7.0,58,26,11,0.00,40.00,16,10,39,0.00
2013-1-25,48.0,41.0,37.0,25.0,22.8,20.0,55,48,38,0.00,40.00,16,10,33,0.00
2013-1-26,48.0,41.0,30.0,30.0,22.5,16.0,94,50,28,0.00,40.00,10,6,23,0.00
2013-1-27,46.0,36.4,27.0,28.0,22.0,14.0,97,60,31,0.00,40.00,14,6,31,0.00
2013-1-28,42.0,32.1,21.0,22.0,15.4,11.0,82,51,32,0.00,40.00,12,7,26,0.00
2013-1-29,23.0,16.1,11.0,17.0,-3.7,-9.0,88,42,24,0.00,40.00,10,7,26,0.00
2013-1-30,28.0,19.2,5.0,12.0,1.2,-10.0,65,45,31,0.00,40.00,17,11,38,0.00
2013-1-31,35.0,30.5,26.0,13.0,10.2,7.0,52,43,32,0.00,40.00,17,12,38,0.00
2013-2-1,34.0,30.2,28.0,17.0,12.5,8.0,57,47,34,0.00,40.00,18,11,36,0.00
2013-2-2,46.0,35.2,29.0,8.0,4.3,-1.0,41,28,15,0.00,40.00,15,9,33,0.00
2013-2-3,47.0,36.6,23.0,4.0,-3.7,-13.0,43,19,9,0.00,40.00,14,8,26,0.00
2013-2-4,42.0,33.5,27.0,10.0,4.1,-1.0,36,29,18,0.00,40.00,18,12,37,0.00
2013-2-5,48.0,38.3,32.0,18.0,13.5,8.0,43,36,28,0.00,40.00,16,10,31,0.00
2013-2-6,41.0,35.1,17.0,29.0,18.0,8.0,91,51,37,0.00,40.00,9,5,20,0.00
2013-2-7,41.0,23.6,9.0,13.0,1.9,-17.0,76,44,8,0.00,40.00,11,4,20,0.01
2013-2-8,47.0,26.9,12.0,5.0,-3.2,-7.0,43,29,12,0.00,40.00,9,3,17,0.01
2013-2-9,33.0,21.9,13.0,21.0,10.3,1.0,89,63,38,0.00,40.00,8,2,16,0.00
2013-2-10,27.0,19.7,8.0,10.0,3.3,-3.0,79,50,28,0.00,40.00,9,4,19,0.00
2013-2-11,23.0,13.2,4.0,14.0,6.2,-2.0,85,74,44,0.00,40.00,8,2,16,0.01
2013-2-12,36.0,22.7,14.0,3.0,-2.7,-16.0,47,33,20,0.00,40.00,18,9,31,0.01
2013-2-13,35.0,26.5,20.0,11.0,5.9,3.0,47,41,34,0.00,40.00,20,13,41,0.00
2013-2-14,35.0,23.3,12.0,15.0,9.6,7.0,84,57,31,0.00,40.00,11,6,28,0.00
2013-2-15,31.0,22.2,8.0,9.0,3.6,-2.0,88,48,25,0.00,40.00,15,7,43,0.00
2013-2-16,45.0,33.9,25.0,10.0,6.5,1.0,48,32,20,0.00,40.00,16,12,33,0.00
2013-2-17,48.0,35.5,23.0,9.0,0.4,-6.0,41,23,12,0.00,40.00,18,10,45,0.00
2013-2-18,30.0,23.0,18.0,4.0,-2.0,-7.0,48,34,22,0.00,40.00,15,8,31,0.00
2013-2-19,46.0,26.5,13.0,-1.0,-10.9,-27.0,42,22,5,0.00,40.00,10,4,22,0.00
2013-2-20,38.0,21.5,12.0,17.0,4.8,-4.0,89,51,23,0.00,40.00,9,3,16,0.00
2013-2-21,27.0,17.1,4.0,17.0,11.9,-1.0,89,80,64,0.00,40.00,7,2,13,0.12
2013-2-22,30.0,21.8,16.0,15.0,2.4,-3.0,58,43,32,0.00,40.00,13,9,33,0.05
2013-2-23,36.0,24.8,17.0,20.0,6.7,-3.0,88,46,34,0.00,40.00,19,11,40,0.00
2013-2-24,24.0,18.7,3.0,18.0,12.8,-1.0,91,78,57,0.00,40.00,4,2,11,0.01
2013-2-25,39.0,20.4,-3.0,11.0,0.9,-8.0,82,48,19,0.00,40.00,11,6,25,0.06
2013-2-26,29.0,23.5,18.0,19.0,7.6,2.0,80,51,36,0.00,40.00,11,6,23,0.02
2013-2-27,29.0,21.7,14.0,2.0,-4.5,-12.0,48,32,18,0.00,40.00,12,8,28,0.01
2013-2-28,36.0,24.9,18.0,7.0,0.2,-6.0,45,34,23,0.00,40.00,13,9,32,0.00
2013-3-1,42.0,33.5,25.0,18.0,9.3,-2.0,51,36,26,0.00,40.00,17,9,37,0.00
2013-3-2,48.0,39.2,33.0,20.0,18.0,14.0,54,43,31,0.00,40.00,14,10,30,0.00
2013-3-3,50.0,41.6,33.0,28.0,18.4,12.0,81,42,25,0.00,40.00,19,9,47,0.00
2013-3-4,38.0,25.5,18.0,30.0,12.2,-5.0,97,60,33,0.00,40.00,14,7,29,0.05
2013-3-5,46.0,30.7,16.0,0.0,-5.2,-12.0,45,23,10,0.00,40.00,13,8,30,0.03
2013-3-6,53.0,43.3,24.0,10.0,4.3,-7.0,28,20,13,0.00,40.00,12,7,31,0.00
2013-3-7,56.0,44.4,27.0,17.0,10.5,-1.0,59,28,10,0.00,40.00,12,7,32,0.00
2013-3-8,50.0,33.5,22.0,24.0,14.1,8.0,88,48,21,0.00,40.00,12,3,21,0.00
2013-3-9,33.0,26.4,18.0,27.0,19.6,4.0,95,77,45,0.00,40.00,5,2,14,0.12
2013-3-10,42.0,30.4,17.0,13.0,6.9,-3.0,60,38,25,0.00,40.00,13,8,26,0.03
2013-3-11,41.0,32.0,24.0,27.0,15.3,9.0,94,51,31,0.00,40.00,16,11,34,0.00
2013-3-12,43.0,30.4,20.0,25.0,19.4,17.0,94,68,35,0.00,40.00,14,6,34,0.11
2013-3-13,54.0,43.3,37.0,22.0,18.2,11.0,49,37,18,0.00,40.00,16,11,32,0.05
2013-3-14,59.0,47.9,41.0,20.0,15.4,9.0,37,28,16,0.00,40.00,15,10,34,0.00
2013-3-15,63.0,52.6,44.0,23.0,16.2,14.0,38,24,16,0.00,40.00,16,9,35,0.00
2013-3-16,50.0,40.5,30.0,29.0,22.0,15.0,74,49,27,0.00,40.00,11,6,26,0.00
2013-3-17,42.0,33.2,23.0,25.0,18.0,0.0,89,54,31,0.00,40.00,15,6,37,0.00
2013-3-18,35.0,26.8,20.0,18.0,2.7,-9.0,69,36,25,0.00,40.00,15,11,37,0.00
2013-3-19,41.0,31.9,23.0,7.0,-10.6,-27.0,45,17,5,0.00,40.00,19,12,41,0.00
2013-3-20,49.0,32.5,10.0,22.0,6.6,-12.0,77,39,13,0.00,40.00,14,8,33,0.00
2013-3-21,42.0,35.8,27.0,29.0,14.7,-6.0,74,44,20,0.00,40.00,17,9,37,0.00
2013-3-22,37.0,26.4,18.0,22.0,7.1,-3.0,90,49,19,0.00,40.00,14,8,32,0.00
2013-3-23,20.0,13.8,-2.0,15.0,8.2,-8.0,89,78,65,0.00,40.00,9,3,14,0.00
2013-3-24,26.0,9.2,-7.0,3.0,-3.5,-13.0,80,59,31,0.00,40.00,11,4,22,0.09
2013-3-25,34.0,16.3,-3.0,10.0,-0.4,-10.0,76,52,23,0.00,40.00,9,4,21,0.08
2013-3-26,45.0,31.4,5.0,27.0,12.7,-2.0,78,47,32,0.00,40.00,12,6,28,0.10
2013-3-27,50.0,37.3,27.0,27.0,22.6,17.0,90,60,29,0.00,40.00,10,4,21,0.06
2013-3-28,56.0,47.1,35.0,29.0,22.6,17.0,74,41,22,0.00,40.00,7,4,19,0.00
2013-3-29,54.0,40.2,29.0,32.0,25.5,20.0,82,58,29,0.00,40.00,12,5,26,0.00
2013-3-30,53.0,42.9,30.0,34.0,21.7,-99.9,85,48,22,0.00,40.00,11,6,31,0.02
2013-3-31,58.0,41.8,22.0,26.0,14.1,-4.0,93,42,8,0.00,40.00,16,7,32,0.02
2013-4-1,45.0,33.7,21.0,33.0,23.9,16.0,97,70,41,0.00,40.00,12,3,17,0.00
2013-4-2,38.0,31.7,29.0,33.0,30.1,28.0,98,95,83,0.00,40.00,7,2,13,0.26
2013-4-3,54.0,36.9,17.0,35.0,23.9,15.0,97,65,24,0.00,40.00,9,2,22,0.33
2013-4-4,58.0,46.4,38.0,29.0,23.6,19.0,70,43,22,0.00,40.00,12,7,24,0.09
2013-4-5,59.0,46.7,36.0,33.0,22.0,16.0,83,40,24,0.00,40.00,14,6,34,0.01
2013-4-6,54.0,43.3,36.0,27.0,19.2,15.0,57,39,24,0.00,40.00,12,7,41,0.01
2013-4-7,48.0,40.1,34.0,32.0,25.8,20.0,94,58,37,0.00,40.00,13,6,30,0.04
2013-4-8,57.0,39.6,28.0,32.0,25.7,20.0,97,62,27,0.00,40.00,10,4,20,0.03
2013-4-9,28.0,16.8,7.0,27.0,11.6,2.0,95,80,62,0.00,40.00,9,6,15,0.06
2013-4-10,34.0,17.9,-4.0,19.0,6.3,-10.0,80,62,36,0.00,40.00,13,5,28,0.32
2013-4-11,45.0,36.0,26.0,28.0,18.2,6.0,67,48,40,0.00,40.00,12,7,28,0.03
2013-4-12,50.0,36.4,24.0,28.0,20.8,10.0,92,60,23,0.00,40.00,12,4,29,0.00
2013-4-13,54.0,38.9,22.0,33.0,20.3,12.0,97,54,21,0.00,40.00,20,9,48,0.10
2013-4-14,33.0,28.8,24.0,32.0,10.5,-2.0,97,50,27,0.00,40.00,15,7,33,0.23
2013-4-15,28.0,22.8,17.0,22.0,18.8,14.0,92,85,63,0.00,40.00,8,3,19,0.02
2013-4-16,32.0,22.7,16.0,22.0,18.0,13.0,92,83,60,0.00,40.00,6,2,10,0.30
2013-4-17,26.0,19.6,6.0,19.0,15.4,1.0,93,83,73,0.00,40.00,10,4,17,0.03
2013-4-18,29.0,13.7,-6.0,5.0,-1.2,-12.0,79,55,31,0.00,40.00,13,7,28,0.04
2013-4-19,40.0,30.5,21.0,20.0,13.0,4.0,58,48,37,0.00,40.00,17,11,32,0.11
2013-4-20,45.0,37.6,31.0,29.0,22.4,18.0,81,55,38,0.00,40.00,11,7,24,0.04
2013-4-21,46.0,38.1,30.0,27.0,21.1,17.0,80,52,35,0.00,40.00,13,6,34,0.00
2013-4-22,43.0,27.9,15.0,31.0,22.3,12.0,97,81,43,0.00,40.00,10,4,18,0.05
2013-4-23,32.0,21.1,12.0,20.0,12.9,7.0,87,71,49,0.00,40.00,7,4,14,0.34
2013-4-24,43.0,31.2,14.0,12.0,7.4,4.0,69,39,22,0.00,40.00,12,7,30,0.01
2013-4-25,57.0,41.3,25.0,24.0,10.4,3.0,68,31,18,0.00,40.00,11,6,25,0.00
2013-4-26,57.0,43.1,30.0,24.0,17.0,13.0,66,39,19,0.00,40.00,7,4,18,0.00
2013-4-27,61.0,46.5,30.0,23.0,16.2,11.0,59,34,14,0.00,40.00,10,6,21,0.00
2013-4-28,66.0,53.9,38.0,31.0,19.7,14.0,53,27,16,0.00,40.00,13,7,26,0.00
2013-4-29,68.0,53.8,35.0,33.0,22.7,15.0,77,36,15,0.00,40.00,16,7,32,0.00
2013-4-30,55.0,45.4,32.0,37.0,30.2,20.0,98,61,25,0.00,40.00,11,7,35,0.22
2013-5-1,32.0,25.8,7.0,32.0,21.7,3.0,98,85,64,0.00,40.00,8,5,15,0.30
2013-5-2,46.0,25.6,2.0,24.0,11.2,-3.0,84,58,27,0.00,40.00,7,4,16,0.56
2013-5-3,56.0,41.0,29.0,27.0,17.4,10.0,78,40,23,0.00,40.00,10,6,20,0.07
2013-5-4,47.0,37.6,25.0,28.0,24.8,21.0,83,62,37,0.00,40.00,9,3,18,0.00
2013-5-5,50.0,39.0,26.0,35.0,25.9,19.0,94,62,40,0.00,40.00,8,3,17,0.02
2013-5-6,56.0,44.4,31.0,35.0,31.3,27.0,95,64,35,0.00,40.00,10,3,15,0.04
2013-5-7,58.0,47.1,35.0,35.0,29.7,24.0,76,53,32,0.00,40.00,13,6,24,0.00
2013-5-8,57.0,40.1,32.0,37.0,33.8,30.0,98,81,37,0.00,40.00,8,3,22,0.61
2013-5-9,47.0,37.5,33.0,39.0,34.7,32.0,99,90,73,0.00,40.00,8,2,16,0.90
2013-5-10,59.0,44.2,31.0,35.0,27.1,-99.9,97,60,26,0.00,40.00,7,3,21,0.01
2013-5-11,61.0,46.3,31.0,37.0,30.4,-99.9,89,59,26,0.00,40.00,10,4,27,0.02
2013-5-12,69.0,56.3,42.0,34.0,28.4,25.0,66,37,21,0.00,40.00,10,6,25,0.02
2013-5-13,75.0,62.7,46.0,40.0,30.5,27.0,60,32,18,0.00,40.00,10,6,17,0.01
2013-5-14,73.0,61.1,47.0,38.0,32.5,27.0,61,36,20,0.00,40.00,10,6,21,0.00
2013-5-15,67.0,55.2,45.0,43.0,35.5,31.0,86,49,28,0.00,40.00,9,5,17,0.01
2013-5-16,70.0,52.0,44.0,41.0,18.5,-99.9,86,44,24,0.00,40.00,13,6,29,0.01
2013-5-17,75.0,55.5,40.0,36.0,21.1,-99.9,71,37,12,0.00,40.00,9,4,28,0.00
2013-5-18,62.0,51.5,42.0,40.0,26.0,16.0,59,38,20,0.00,40.00,10,6,26,0.10
2013-5-19,57.0,48.6,42.0,29.0,26.6,24.0,54,43,29,0.00,40.00,12,9,24,0.09
2013-5-20,54.0,47.2,41.0,34.0,28.1,21.0,76,49,36,0.00,40.00,11,7,24,0.00
2013-5-21,59.0,47.5,34.0,27.0,21.8,16.0,61,37,24,0.00,40.00,11,6,28,0.00
2013-5-22,64.0,51.0,32.0,44.0,30.9,23.0,91,51,21,0.00,40.00,9,4,20,0.07
2013-5-23,61.0,50.8,43.0,47.0,44.1,42.0,98,79,57,0.00,40.00,7,4,14,0.08
2013-5-24,75.0,57.0,37.0,44.0,29.0,16.0,91,46,11,0.00,40.00,10,4,20,0.00
2013-5-25,75.0,58.2,37.0,34.0,21.3,7.0,82,33,8,0.00,40.00,11,4,21,0.00
2013-5-26,75.0,58.7,47.0,32.0,22.2,14.0,53,27,10,0.00,40.00,10,6,20,0.00
2013-5-27,69.0,57.5,43.0,29.0,20.1,9.0,53,26,14,0.00,40.00,12,5,27,0.00
2013-5-28,68.0,54.2,36.0,39.0,26.2,20.0,67,38,16,0.00,40.00,9,3,22,0.00
2013-5-29,56.0,47.4,39.0,39.0,31.2,24.0,90,56,30,0.00,40.00,12,7,30,0.09
2013-5-30,53.0,46.6,40.0,31.0,23.4,16.0,65,41,23,0.00,40.00,22,13,51,0.01
2013-5-31,58.0,49.1,41.0,22.0,14.2,9.0,41,25,19,0.00,40.00,18,12,51,0.00
2013-6-1,59.0,50.4,43.0,35.0,27.0,-99.9,65,43,25,0.00,40.00,12,7,33,0.00
2013-6-2,74.0,52.7,29.0,33.0,28.5,22.0,86,47,14,0.00,40.00,9,4,21,0.00
2013-6-3,73.0,58.6,40.0,37.0,26.3,20.0,56,32,16,0.00,40.00,14,5,36,0.01
2013-6-4,65.0,51.2,34.0,45.0,34.1,19.0,80,53,35,0.00,40.00,10,5,18,0.01
2013-6-5,60.0,48.7,40.0,42.0,39.8,38.0,94,73,47,0.00,40.00,11,5,18,0.00
2013-6-6,67.0,51.7,32.0,38.0,34.1,29.0,93,58,27,0.00,40.00,9,3,25,0.00
2013-6-7,74.0,54.8,37.0,41.0,35.3,27.0,84,53,19,0.00,40.00,10,3,27,0.00
2013-6-8,72.0,63.4,45.0,43.0,32.9,28.0,70,33,20,0.00,40.00,12,7,30,0.00
2013-6-9,81.0,60.7,36.0,36.0,30.9,27.0,87,43,14,0.00,40.00,9,4,21,0.00
2013-6-10,85.0,69.7,51.0,39.0,30.6,23.0,47,26,12,0.00,40.00,8,4,34,0.00
2013-6-11,82.0,68.4,46.0,36.0,22.0,12.0,49,21,8,0.00,40.00,14,7,35,0.00
2013-6-12,84.0,67.9,46.0,42.0,25.2,16.0,47,22,11,0.00,40.00,12,5,25,0.00
2013-6-13,85.0,62.8,44.0,46.0,38.1,22.0,84,49,11,0.00,40.00,15,3,30,0.00
2013-6-14,79.0,63.6,47.0,43.0,33.2,13.0,67,39,8,0.00,40.00,11,4,24,0.00
2013-6-15,73.0,58.7,39.0,45.0,41.9,36.0,88,57,35,0.00,40.00,9,3,20,0.00
2013-6-16,74.0,58.2,43.0,45.0,35.4,25.0,88,47,16,0.00,40.00,12,5,31,0.00
2013-6-17,70.0,57.4,41.0,51.0,37.1,31.0,81,49,29,0.00,40.00,11,4,20,0.00
2013-6-18,75.0,59.7,42.0,46.0,39.7,31.0,91,54,20,0.00,40.00,8,3,20,0.00
2013-6-19,84.0,62.6,40.0,44.0,28.4,5.0,92,43,6,0.00,40.00,10,4,27,0.00
2013-6-20,78.0,59.1,43.0,30.0,21.2,13.0,34,24,11,0.00,40.00,6,4,19,0.00
2013-6-22,78.0,67.2,51.0,41.0,27.6,19.0,40,24,14,0.00,40.00,11,5,29,0.00
2013-6-23,75.0,59.2,39.0,45.0,32.8,21.0,53,37,29,0.00,40.00,10,4,24,0.00
2013-6-24,77.0,60.4,40.0,38.0,26.1,10.0,78,37,8,0.00,40.00,13,4,27,0.00
2013-6-25,75.0,66.3,53.0,36.0,28.7,22.0,47,25,19,0.00,40.00,11,7,30,0.00
2013-6-26,85.0,66.6,43.0,40.0,32.8,31.0,63,34,16,0.00,40.00,9,4,20,0.00
2013-6-27,89.0,72.2,52.0,40.0,31.4,22.0,48,26,9,0.00,40.00,9,4,23,0.00
2013-6-28,86.0,68.5,49.0,52.0,42.7,29.0,69,42,13,0.00,40.00,10,4,25,0.00
2013-6-29,76.0,61.0,47.0,56.0,47.7,38.0,84,65,25,0.00,40.00,10,3,20,0.06
2013-6-30,72.0,59.1,51.0,57.0,51.0,48.0,92,76,43,0.00,40.00,7,2,18,0.11
2013-7-1,70.0,57.6,42.0,53.0,46.7,38.0,95,70,40,0.00,40.00,8,3,17,0.16
2013-7-2,75.0,59.2,43.0,49.0,43.8,35.0,97,62,27,0.00,40.00,9,4,23,0.08
2013-7-3,78.0,60.0,41.0,50.0,41.1,36.0,89,55,27,0.00,40.00,12,4,26,0.03
2013-7-4,79.0,68.4,53.0,48.0,40.6,37.0,64,38,22,0.00,40.00,8,4,16,0.02
2013-7-5,79.0,63.5,51.0,52.0,45.8,41.0,83,55,28,0.00,40.00,11,4,27,0.01
2013-7-6,80.0,62.3,50.0,49.0,46.5,41.0,86,60,28,0.00,40.00,15,4,28,0.05
2013-7-7,79.0,65.1,49.0,51.0,46.3,41.0,93,56,27,0.00,40.00,10,4,26,0.12
2013-7-8,80.0,67.3,57.0,48.0,40.0,-99.9,68,40,24,0.00,40.00,10,7,31,0.01
2013-7-9,83.0,69.7,51.0,43.0,34.8,27.0,63,32,13,0.00,40.00,9,5,19,0.01
2013-7-10,81.0,66.0,47.0,49.0,39.7,-99.9,70,42,26,0.00,40.00,10,4,20,0.00
2013-7-11,89.0,69.7,50.0,48.0,43.1,32.0,76,45,15,0.00,40.00,7,3,22,0.00
2013-7-12,82.0,68.7,59.0,59.0,47.2,41.0,86,49,29,0.00,40.00,12,5,23,0.04
2013-7-13,79.0,64.1,53.0,55.0,50.8,46.0,95,66,32,0.00,40.00,8,3,19,0.34
2013-7-14,71.0,59.1,49.0,57.0,52.7,47.0,96,80,51,0.00,40.00,9,2,18,0.42
2013-7-15,74.0,60.4,53.0,57.0,54.4,52.0,97,82,56,0.00,40.00,8,2,16,0.09
2013-7-16,74.0,69.4,54.0,47.0,44.4,41.0,71,42,31,0.00,40.00,8,5,16,0.00
2013-7-17,81.0,64.6,46.0,51.0,47.4,42.0,91,58,34,0.00,40.00,8,3,16,0.00
2013-7-18,80.0,64.8,56.0,56.0,50.4,44.0,96,65,29,0.00,40.00,8,3,21,0.16
2013-7-19,75.0,62.4,49.0,57.0,52.3,47.0,97,73,44,0.00,40.00,8,3,17,0.07
2013-7-20,80.0,60.8,45.0,52.0,43.9,-99.9,88,60,25,0.00,40.00,10,3,18,0.00
2013-7-21,83.0,62.0,44.0,47.0,40.1,22.0,90,53,11,0.00,40.00,11,3,27,0.00
2013-7-22,85.0,62.2,51.0,35.0,26.2,17.0,46,29,9,0.00,40.00,10,4,26,0.00
2013-7-23,83.0,67.8,51.0,52.0,37.0,16.0,79,36,8,0.00,40.00,8,4,18,0.00
2013-7-24,78.0,61.1,49.0,57.0,50.2,45.0,94,70,42,0.00,40.00,6,2,18,0.12
2013-7-25,70.0,59.4,53.0,55.0,48.7,41.0,89,70,36,0.00,40.00,6,3,18,0.02
2013-7-26,76.0,61.4,43.0,47.0,43.9,41.0,91,56,33,0.00,40.00,9,3,25,0.02
2013-7-27,76.0,59.1,44.0,55.0,45.6,37.0,95,65,25,0.00,40.00,12,5,20,0.27
2013-7-28,70.0,57.4,52.0,56.0,52.6,48.0,98,86,45,0.00,40.00,8,3,17,0.31
2013-7-29,67.0,57.9,51.0,50.0,45.8,43.0,96,66,41,0.00,40.00,10,5,18,0.12
2013-7-30,76.0,61.8,48.0,49.0,45.3,40.0,93,59,27,0.00,40.00,12,5,25,0.04
2013-7-31,79.0,64.0,49.0,47.0,42.4,36.0,79,50,22,0.00,40.00,8,4,27,0.01
2013-8-1,79.0,63.9,46.0,47.0,42.8,37.0,87,52,22,0.00,40.00,9,4,20,0.01
2013-8-2,82.0,69.9,56.0,49.0,42.3,38.0,77,38,23,0.00,40.00,11,7,24,0.00
2013-8-3,82.0,63.8,51.0,54.0,44.8,35.0,84,55,20,0.00,40.00,13,5,26,0.00
2013-8-4,78.0,63.8,47.0,49.0,42.7,32.0,90,50,19,0.00,40.00,8,5,23,0.01
2013-8-5,79.0,65.4,52.0,49.0,41.4,38.0,68,43,23,0.00,40.00,10,6,19,0.01
2013-8-6,78.0,66.2,60.0,41.0,37.2,31.0,50,35,21,0.00,40.00,12,7,29,0.00
2013-8-7,67.0,56.7,45.0,46.0,40.1,34.0,85,55,34,0.00,40.00,6,2,14,0.02
2013-8-8,69.0,54.6,39.0,51.0,41.0,34.0,85,61,39,0.00,40.00,9,4,17,0.02
2013-8-9,70.0,53.2,41.0,49.0,43.7,37.0,91,73,37,0.00,40.00,6,2,19,0.58
2013-8-10,76.0,59.9,42.0,47.0,40.8,34.0,94,56,22,0.00,40.00,7,3,18,0.01
2013-8-11,71.0,57.7,48.0,49.0,44.6,38.0,91,64,41,0.00,40.00,7,2,17,0.20
2013-8-12,71.0,56.1,43.0,50.0,43.3,38.0,92,65,38,0.00,40.00,8,3,19,0.67
2013-8-13,61.0,51.8,42.0,50.0,43.4,-99.9,94,77,51,0.00,40.00,10,3,23,0.31
2013-8-14,74.0,54.8,41.0,45.0,38.6,-99.9,91,64,24,0.00,40.00,6,2,18,0.03
2013-8-15,79.0,55.4,44.0,45.0,23.8,-99.9,76,42,15,0.00,40.00,11,4,35,0.00
2013-8-16,79.0,61.5,44.0,42.0,35.1,-99.9,78,46,15,0.00,40.00,6,2,14,0.00
2013-8-17,81.0,63.0,46.0,42.0,32.3,-99.9,69,39,11,0.00,40.00,8,3,18,0.00
2013-8-18,82.0,67.9,54.0,47.0,36.0,31.0,53,32,16,0.00,40.00,10,5,25,0.00
2013-8-19,82.0,65.1,52.0,42.0,30.7,-99.9,62,36,17,0.00,40.00,10,4,19,0.00
2013-8-20,85.0,66.1,52.0,41.0,35.8,-99.9,61,37,15,0.00,40.00,8,4,16,0.00
2013-8-21,80.0,68.3,57.0,47.0,42.6,38.0,66,40,28,0.00,40.00,9,4,19,0.00
2013-8-22,75.0,59.4,48.0,56.0,49.3,43.0,95,72,43,0.00,40.00,5,2,15,0.18
2013-8-23,78.0,64.2,53.0,52.0,48.0,44.0,94,59,30,0.00,40.00,8,4,18,0.16
2013-8-24,74.0,61.1,47.0,52.0,43.2,-99.9,89,57,29,0.00,40.00,10,4,19,0.10
2013-8-25,77.0,61.2,48.0,57.0,48.2,44.0,89,67,35,0.00,40.00,7,3,17,0.11
2013-8-26,80.0,65.4,50.0,56.0,48.6,46.0,90,59,31,0.00,40.00,10,5,28,0.03
2013-8-27,78.0,61.7,52.0,56.0,50.1,47.0,90,69,35,0.00,40.00,6,2,15,0.04
2013-8-28,80.0,72.1,58.0,51.0,45.2,37.0,57,39,29,0.00,40.00,10,4,22,0.18
2013-8-29,82.0,64.9,52.0,55.0,45.7,40.0,84,53,25,0.00,40.00,9,3,17,0.28
2013-8-30,80.0,63.1,50.0,55.0,48.1,44.0,90,63,29,0.00,40.00,6,2,16,0.26
2013-8-31,81.0,64.0,51.0,56.0,44.3,-99.9,86,52,24,0.00,40.00,8,4,20,0.15
2013-9-1,72.0,57.4,46.0,56.0,49.8,44.0,93,77,54,0.00,40.00,7,2,12,0.25
2013-9-2,80.0,63.3,48.0,50.0,47.4,43.0,93,62,28,0.00,40.00,8,2,16,0.01
2013-9-3,84.0,68.5,54.0,52.0,46.2,42.0,79,49,23,0.00,40.00,7,4,17,0.00
2013-9-4,82.0,62.4,50.0,57.0,49.2,44.0,86,65,26,0.00,40.00,7,2,24,0.07
2013-9-5,85.0,64.7,51.0,55.0,48.9,45.0,85,60,26,0.00,40.00,7,2,13,0.01
2013-9-6,81.0,64.3,55.0,51.0,46.0,41.0,74,54,29,0.00,40.00,17,4,30,0.01
2013-9-7,82.0,65.1,49.0,49.0,43.7,-99.9,79,50,28,0.00,40.00,8,3,20,0.01
2013-9-8,80.0,60.7,48.0,55.0,46.2,41.0,89,62,29,0.00,40.00,6,2,14,0.03
2013-9-9,73.0,61.3,53.0,55.0,48.8,43.0,96,66,44,0.00,40.00,9,4,28,0.12
2013-9-10,57.0,53.9,51.0,53.0,52.0,49.0,97,93,84,0.00,40.00,6,3,14,0.48
2013-9-11,57.0,54.0,52.0,54.0,52.3,50.0,98,95,91,0.00,40.00,6,3,11,1.70
2013-9-12,58.0,53.3,50.0,55.0,51.8,49.0,98,95,87,0.00,40.00,7,2,13,5.94
2013-9-13,67.0,55.3,49.0,55.0,51.3,46.0,98,88,46,0.00,40.00,7,2,13,1.89
2013-9-14,67.0,53.4,44.0,49.0,44.0,-99.9,97,75,40,0.00,40.00,8,3,14,0.07
2013-9-15,51.0,49.0,47.0,49.0,47.5,46.0,98,95,85,0.00,40.00,6,1,10,0.55
2013-9-16,70.0,53.1,45.0,51.0,45.2,42.0,98,79,36,0.00,40.00,8,3,22,0.02
2013-9-17,73.0,60.8,47.0,46.0,39.3,28.0,83,48,19,0.00,40.00,12,6,23,0.00
2013-9-18,56.0,51.2,48.0,45.0,41.4,39.0,86,69,56,0.00,40.00,5,3,17,0.17
2013-9-19,57.0,48.9,41.0,44.0,40.5,37.0,95,74,53,0.00,40.00,7,4,25,0.19
2013-9-20,65.0,47.7,32.0,42.0,37.1,31.0,95,71,34,0.00,40.00,9,3,15,0.02
2013-9-21,72.0,58.2,39.0,38.0,31.2,-99.9,89,43,21,0.00,40.00,12,6,27,0.00
2013-9-22,62.0,50.6,43.0,45.0,39.5,33.0,96,68,41,0.00,40.00,11,4,25,0.16
2013-9-23,53.0,47.5,43.0,41.0,31.8,27.0,89,56,37,0.00,40.00,15,11,33,0.18
2013-9-24,67.0,53.1,46.0,29.0,24.3,6.0,48,35,12,0.00,40.00,15,9,27,0.00
2013-9-25,73.0,61.9,48.0,29.0,19.5,6.0,47,20,12,0.00,40.00,9,5,27,0.00
2013-9-26,63.0,48.5,36.0,41.0,35.6,29.0,92,63,42,0.00,40.00,10,3,16,0.00
2013-9-27,46.0,41.1,36.0,43.0,35.4,19.0,95,81,50,0.00,40.00,11,4,26,0.12
2013-9-28,55.0,43.4,35.0,26.0,19.1,-99.9,53,39,31,0.00,40.00,16,10,34,0.03
2013-9-29,63.0,53.2,46.0,24.0,17.8,14.0,42,25,19,0.00,40.00,16,10,34,0.00
2013-9-30,72.0,59.5,53.0,28.0,21.8,17.0,37,23,18,0.00,40.00,17,9,36,0.00
2013-10-1,62.0,50.6,43.0,42.0,40.2,38.0,87,69,47,0.00,40.00,7,2,15,0.00
2013-10-2,69.0,50.6,36.0,38.0,30.8,20.0,85,54,16,0.00,40.00,10,4,24,0.00
2013-10-3,61.0,45.9,33.0,40.0,33.1,23.0,95,66,24,0.00,40.00,10,5,18,0.14
2013-10-4,41.0,33.4,27.0,39.0,22.6,7.0,96,67,41,0.00,40.00,12,6,24,0.34
2013-10-5,46.0,36.8,28.0,12.0,7.4,0.0,50,31,18,0.00,40.00,17,11,35,0.01
2013-10-6,63.0,50.4,39.0,26.0,19.0,0.0,41,29,18,0.00,40.00,14,9,32,0.00
2013-10-7,68.0,57.0,47.0,24.0,14.2,9.0,36,19,10,0.00,40.00,13,8,26,0.00
2013-10-8,68.0,56.5,38.0,28.0,16.8,11.0,63,23,14,0.00,40.00,9,6,24,0.00
2013-10-9,61.0,48.1,37.0,37.0,30.1,23.0,80,51,29,0.00,40.00,9,4,19,0.00
2013-10-10,50.0,42.5,36.0,41.0,33.8,26.0,92,72,51,0.00,40.00,13,4,34,0.02
2013-10-11,48.0,40.3,35.0,29.0,26.1,22.0,74,57,37,0.00,40.00,15,10,36,0.03
2013-10-12,52.0,36.9,25.0,32.0,25.1,-99.9,94,69,29,0.00,40.00,10,3,20,0.01
2013-10-13,60.0,40.9,27.0,36.0,29.2,24.0,90,68,25,0.00,40.00,7,3,13,0.00
2013-10-14,46.0,39.9,34.0,35.0,28.5,22.0,90,65,44,0.00,40.00,12,5,29,0.04
2013-10-15,34.0,30.0,27.0,30.0,25.7,23.0,93,84,67,0.00,40.00,8,4,15,0.01
2013-10-16,45.0,34.1,21.0,24.0,16.3,8.0,90,52,24,0.00,40.00,12,6,29,0.02
2013-10-17,45.0,36.1,30.0,28.0,18.5,12.0,92,51,31,0.00,40.00,14,7,29,0.02
2013-10-18,37.0,30.2,19.0,28.0,16.1,10.0,94,60,35,0.00,40.00,11,5,24,0.23
2013-10-19,53.0,40.0,32.0,18.0,13.4,-99.9,46,35,22,0.00,40.00,17,11,33,0.02
2013-10-20,44.0,37.1,24.0,31.0,21.9,15.0,93,58,31,0.00,40.00,10,5,25,0.00
2013-10-21,47.0,34.2,20.0,22.0,19.1,15.0,91,58,35,0.00,40.00,12,5,25,0.04
2013-10-22,56.0,47.1,39.0,26.0,21.4,19.0,45,36,30,0.00,40.00,12,8,25,0.01
2013-10-23,61.0,47.6,30.0,31.0,23.3,19.0,83,41,20,0.00,40.00,10,6,22,0.00
2013-10-24,59.0,38.4,23.0,29.0,23.7,20.0,90,63,23,0.00,40.00,8,3,16,0.00
2013-10-25,64.0,42.3,26.0,26.0,22.5,20.0,79,52,19,0.00,40.00,10,4,19,0.00
2013-10-26,58.0,38.7,26.0,31.0,23.0,-99.9,81,58,30,0.00,40.00,9,3,16,0.00
2013-10-27,56.0,46.6,34.0,23.0,19.6,15.0,61,35,24,0.00,40.00,11,6,24,0.00
2013-10-28,39.0,31.7,26.0,29.0,25.3,21.0,97,78,57,0.00,40.00,7,3,12,0.00
2013-10-29,51.0,32.3,23.0,33.0,25.3,18.0,98,79,29,0.00,40.00,11,4,17,0.00
2013-10-30,42.0,34.4,31.0,33.0,21.6,15.0,96,61,42,0.00,40.00,15,7,32,0.11
2013-10-31,37.0,33.0,30.0,23.0,16.4,12.0,68,50,41,0.00,40.00,22,12,43,0.10
2013-11-1,41.0,35.6,31.0,27.0,18.2,12.0,80,50,33,0.00,40.00,11,7,26,0.00
2013-11-2,55.0,44.5,28.0,17.0,7.0,-99.9,63,25,9,0.00,40.00,15,10,36,0.00
2013-11-3,54.0,46.4,30.0,24.0,12.0,-8.0,78,28,8,0.00,40.00,13,8,40,0.00
2013-11-4,37.0,29.5,24.0,19.0,13.0,7.0,73,50,34,0.00,40.00,13,7,34,0.00
2013-11-5,32.0,25.2,20.0,22.0,5.8,-9.0,90,47,23,0.00,40.00,16,8,31,0.00
2013-11-6,37.0,29.0,21.0,17.0,9.8,-1.0,58,44,33,0.00,40.00,20,13,40,0.00
2013-11-7,52.0,41.2,33.0,19.0,16.8,15.0,51,38,25,0.00,40.00,13,8,29,0.00
2013-11-8,55.0,46.2,40.0,19.0,14.6,10.0,38,28,20,0.00,40.00,21,11,46,0.00
2013-11-9,57.0,42.3,27.0,23.0,16.6,-99.9,76,38,23,0.00,40.00,10,5,21,0.00
2013-11-10,57.0,45.6,27.0,21.0,16.8,14.0,76,34,21,0.00,40.00,11,6,23,0.00
2013-11-11,59.0,42.2,25.0,27.0,18.7,13.0,94,46,17,0.00,40.00,13,7,28,0.00
2013-11-12,55.0,37.2,21.0,25.0,22.5,8.0,92,62,20,0.00,40.00,10,4,17,0.00
2013-11-13,55.0,47.5,36.0,16.0,9.7,4.0,44,22,14,0.00,40.00,12,7,24,0.00
2013-11-14,49.0,41.0,30.0,23.0,15.6,8.0,58,37,23,0.00,40.00,12,7,23,0.00
2013-11-15,48.0,39.3,32.0,29.0,15.8,5.0,90,42,23,0.00,40.00,11,7,27,0.00
2013-11-16,40.0,32.4,28.0,28.0,18.6,-99.9,95,60,39,0.00,40.00,23,10,56,0.00
2013-11-17,39.0,32.6,26.0,21.0,14.7,8.0,82,48,35,0.00,40.00,20,12,45,0.00
2013-11-18,54.0,38.4,25.0,17.0,13.5,8.0,49,37,17,0.00,40.00,19,10,35,0.00
2013-11-19,45.0,41.3,38.0,27.0,16.9,3.0,64,38,20,0.00,40.00,12,8,29,0.00
2013-11-20,48.0,38.6,34.0,26.0,21.1,16.0,70,50,33,0.00,40.00,11,5,23,0.00
2013-11-21,36.0,15.0,6.0,26.0,9.9,1.0,89,80,57,0.00,40.00,7,4,14,0.00
2013-11-22,35.0,18.2,7.0,26.0,11.9,3.0,86,77,50,0.00,40.00,3,1,7,0.22
2013-11-23,31.0,21.1,12.0,21.0,14.7,-99.9,91,79,65,0.00,40.00,4,1,9,0.06
2013-11-24,45.0,27.6,14.0,34.0,22.8,11.0,97,83,55,0.00,40.00,3,1,11,0.13
2013-11-25,38.0,29.2,18.0,21.0,18.0,10.0,80,64,46,0.00,40.00,5,2,11,0.06
2013-11-26,48.0,28.3,16.0,18.0,13.5,10.0,78,58,25,0.00,40.00,7,3,15,0.01
2013-11-27,52.0,40.2,27.0,18.0,13.8,9.0,64,35,23,0.00,40.00,12,7,26,0.01
2013-11-28,53.0,29.0,19.0,23.0,17.4,13.0,80,64,28,0.00,40.00,6,2,10,0.00
2013-11-29,47.0,39.5,32.0,18.0,16.1,13.0,56,39,30,0.00,40.00,14,9,28,0.00
2013-11-30,43.0,36.3,30.0,17.0,13.2,-99.9,53,40,30,0.00,40.00,14,9,25,0.00
2013-12-1,42.0,35.4,31.0,24.0,17.3,13.0,70,48,35,0.00,40.00,24,11,49,0.00
2013-12-2,39.0,35.6,32.0,26.0,23.2,20.0,76,61,50,0.00,40.00,17,13,36,0.00
2013-12-3,37.0,28.7,7.0,27.0,17.8,2.0,86,65,48,0.00,40.00,11,6,27,0.00
2013-12-4,7.0,1.4,-11.0,2.0,-4.5,-17.0,80,75,69,0.00,40.00,6,3,10,0.00
2013-12-5,16.0,-2.8,-10.0,2.0,-10.8,-18.0,75,68,50,0.00,40.00,6,3,13,0.05
2013-12-6,12.0,-3.8,-14.0,0.0,-12.0,-21.0,77,68,51,0.00,40.00,8,2,18,0.03
2013-12-7,21.0,8.3,-3.0,6.0,-2.0,-99.9,81,67,46,0.00,40.00,7,2,10,0.00
2013-12-8,18.0,10.4,3.0,3.0,-4.7,-13.0,78,52,34,0.00,40.00,13,6,26,0.00
2013-12-9,15.0,7.3,-2.0,-5.0,-13.2,-18.0,53,38,23,0.00,40.00,19,12,40,0.00
2013-12-10,27.0,19.7,11.0,9.0,2.9,-6.0,60,48,40,0.00,40.00,26,14,51,0.00
2013-12-11,34.0,28.1,21.0,6.0,2.4,-4.0,45,33,20,0.00,40.00,17,12,37,0.01
2013-12-12,49.0,41.3,33.0,5.0,0.4,-8.0,24,18,14,0.00,40.00,16,11,33,0.01
2013-12-13,40.0,33.5,25.0,12.0,7.5,-2.0,49,34,18,0.00,40.00,13,9,29,0.00
2013-12-14,34.0,27.3,20.0,12.0,5.3,-99.9,57,40,30,0.00,40.00,18,10,36,0.00
2013-12-15,45.0,34.6,27.0,15.0,12.7,11.0,52,40,27,0.00,40.00,18,12,40,0.00
2013-12-16,47.0,40.0,36.0,16.0,11.8,5.0,41,32,23,0.00,40.00,19,12,40,0.00
2013-12-17,51.0,42.4,37.0,13.0,10.2,8.0,34,26,20,0.00,40.00,12,8,31,0.00
2013-12-18,51.0,44.7,39.0,13.0,8.0,6.0,34,22,18,0.00,40.00,16,10,35,0.00
2013-12-19,47.0,37.5,20.0,26.0,17.0,12.0,91,47,24,0.00,40.00,16,7,42,0.00
2013-12-20,36.0,23.9,13.0,20.0,11.6,5.0,91,63,40,0.00,40.00,16,5,35,0.00
2013-12-21,29.0,24.3,19.0,18.0,6.6,-99.9,89,49,39,0.00,40.00,16,8,33,0.00
2013-12-22,26.0,21.9,16.0,9.0,4.8,-1.0,58,47,36,0.00,40.00,15,7,34,0.00
2013-12-23,34.0,26.5,12.0,17.0,12.3,6.0,83,56,36,0.00,40.00,18,10,36,0.00
2013-12-24,35.0,28.4,20.0,27.0,13.3,1.0,90,54,37,0.00,40.00,16,9,35,0.02
2013-12-25,37.0,27.0,19.0,5.0,2.3,-1.0,47,35,25,0.00,40.00,17,11,31,0.02
2013-12-26,41.0,33.5,24.0,13.0,5.1,-4.0,39,30,21,0.00,40.00,19,10,31,0.00
2013-12-27,51.0,39.0,28.0,19.0,15.8,11.0,66,40,27,0.00,40.00,11,6,22,0.00
2013-12-28,43.0,35.3,18.0,20.0,15.8,-99.9,88,49,34,0.00,40.00,11,8,22,0.00
2013-12-29,31.0,22.3,6.0,18.0,6.6,-2.0,89,56,29,0.00,40.00,18,8,38,0.09
2013-12-30,34.0,29.4,26.0,12.0,8.3,5.0,46,40,34,0.00,40.00,15,10,43,0.05
2013-12-31,38.0,33.9,30.0,21.0,16.1,9.0,63,48,38,0.00,40.00,18,12,41,0.00
2014-1-1,32.0,27.3,19.0,25.0,13.4,2.0,89,57,39,0.00,40.00,12,6,33,0.00
2014-1-2,42.0,33.2,25.0,13.0,7.0,1.0,42,33,24,0.00,40.00,17,10,37,0.00